sensor_id;sensor_type;location;lat;lon;timestamp;P1;durP1;ratioP1;P2;durP2;ratioP2
25069;SDS011;13064;48.162;11.536;2023-08-01T00:00:52;3.50;;;2.40;;
25069;SDS011;13064;48.162;11.536;2023-08-01T00:03:20;3.47;;;2.80;;
25069;SDS011;13064;48.162;11.536;2023-08-01T00:05:48;5.78;;;2.63;;
25069;SDS011;13064;48.162;11.536;2023-08-01T00:08:16;3.30;;;2.28;;
25069;SDS011;13064;48.162;11.536;2023-08-01T00:10:43;3.65;;;2.75;;
25069;SDS011;13064;48.162;11.536;2023-08-01T00:13:11;4.07;;;2.42;;
25069;SDS011;13064;48.162;11.536;2023-08-01T00:15:38;3.35;;;2.40;;
25069;SDS011;13064;48.162;11.536;2023-08-01T00:18:11;3.55;;;2.47;;
25069;SDS011;13064;48.162;11.536;2023-08-01T00:20:38;4.22;;;2.75;;
25069;SDS011;13064;48.162;11.536;2023-08-01T00:23:06;3.72;;;3.03;;
25069;SDS011;13064;48.162;11.536;2023-08-01T00:25:34;3.83;;;2.50;;
25069;SDS011;13064;48.162;11.536;2023-08-01T00:28:01;3.13;;;2.30;;
25069;SDS011;13064;48.162;11.536;2023-08-01T00:30:29;4.85;;;2.45;;
25069;SDS011;13064;48.162;11.536;2023-08-01T00:32:57;4.22;;;2.53;;
25069;SDS011;13064;48.162;11.536;2023-08-01T00:35:24;4.43;;;2.60;;
25069;SDS011;13064;48.162;11.536;2023-08-01T00:37:52;4.88;;;2.80;;
25069;SDS011;13064;48.162;11.536;2023-08-01T00:40:19;4.90;;;2.45;;
25069;SDS011;13064;48.162;11.536;2023-08-01T00:42:47;2.80;;;2.08;;
25069;SDS011;13064;48.162;11.536;2023-08-01T00:45:15;3.33;;;2.60;;
25069;SDS011;13064;48.162;11.536;2023-08-01T00:47:44;3.35;;;2.63;;
25069;SDS011;13064;48.162;11.536;2023-08-01T00:50:12;6.07;;;2.60;;
25069;SDS011;13064;48.162;11.536;2023-08-01T00:52:40;3.72;;;2.25;;
25069;SDS011;13064;48.162;11.536;2023-08-01T00:55:07;4.28;;;2.70;;
25069;SDS011;13064;48.162;11.536;2023-08-01T00:57:35;3.45;;;2.60;;
25069;SDS011;13064;48.162;11.536;2023-08-01T01:00:03;4.35;;;2.78;;
25069;SDS011;13064;48.162;11.536;2023-08-01T01:02:31;3.85;;;2.40;;
25069;SDS011;13064;48.162;11.536;2023-08-01T01:04:58;4.80;;;2.67;;
25069;SDS011;13064;48.162;11.536;2023-08-01T01:07:27;3.30;;;2.53;;
25069;SDS011;13064;48.162;11.536;2023-08-01T01:09:55;4.45;;;2.90;;
25069;SDS011;13064;48.162;11.536;2023-08-01T01:12:22;5.15;;;2.78;;
25069;SDS011;13064;48.162;11.536;2023-08-01T01:14:50;5.80;;;2.90;;
25069;SDS011;13064;48.162;11.536;2023-08-01T01:17:17;5.72;;;3.08;;
25069;SDS011;13064;48.162;11.536;2023-08-01T01:19:45;3.83;;;2.92;;
25069;SDS011;13064;48.162;11.536;2023-08-01T01:22:13;3.67;;;2.80;;
25069;SDS011;13064;48.162;11.536;2023-08-01T01:24:41;5.90;;;2.90;;
25069;SDS011;13064;48.162;11.536;2023-08-01T01:27:09;3.80;;;2.90;;
25069;SDS011;13064;48.162;11.536;2023-08-01T01:29:37;4.20;;;2.67;;
25069;SDS011;13064;48.162;11.536;2023-08-01T01:32:05;6.07;;;2.80;;
25069;SDS011;13064;48.162;11.536;2023-08-01T01:34:33;4.30;;;2.80;;
25069;SDS011;13064;48.162;11.536;2023-08-01T01:37:01;5.85;;;3.17;;
25069;SDS011;13064;48.162;11.536;2023-08-01T01:39:30;5.07;;;3.10;;
25069;SDS011;13064;48.162;11.536;2023-08-01T01:41:57;5.85;;;2.83;;
25069;SDS011;13064;48.162;11.536;2023-08-01T01:44:25;5.13;;;2.50;;
25069;SDS011;13064;48.162;11.536;2023-08-01T01:46:52;4.53;;;2.72;;
25069;SDS011;13064;48.162;11.536;2023-08-01T01:49:20;4.60;;;3.20;;
25069;SDS011;13064;48.162;11.536;2023-08-01T01:51:48;4.00;;;2.88;;
25069;SDS011;13064;48.162;11.536;2023-08-01T01:54:15;3.90;;;2.97;;
25069;SDS011;13064;48.162;11.536;2023-08-01T01:56:43;5.00;;;2.90;;
25069;SDS011;13064;48.162;11.536;2023-08-01T01:59:10;4.65;;;3.30;;
25069;SDS011;13064;48.162;11.536;2023-08-01T02:01:38;3.45;;;2.70;;
25069;SDS011;13064;48.162;11.536;2023-08-01T02:04:06;5.93;;;3.05;;
25069;SDS011;13064;48.162;11.536;2023-08-01T02:06:33;2.97;;;2.60;;
25069;SDS011;13064;48.162;11.536;2023-08-01T02:09:01;4.03;;;2.97;;
25069;SDS011;13064;48.162;11.536;2023-08-01T02:11:30;3.30;;;2.72;;
25069;SDS011;13064;48.162;11.536;2023-08-01T02:13:57;5.82;;;3.20;;
25069;SDS011;13064;48.162;11.536;2023-08-01T02:16:25;4.70;;;3.00;;
25069;SDS011;13064;48.162;11.536;2023-08-01T02:18:53;5.60;;;3.05;;
25069;SDS011;13064;48.162;11.536;2023-08-01T02:21:21;4.63;;;2.65;;
25069;SDS011;13064;48.162;11.536;2023-08-01T02:23:49;4.10;;;3.08;;
25069;SDS011;13064;48.162;11.536;2023-08-01T02:26:16;5.20;;;3.08;;
25069;SDS011;13064;48.162;11.536;2023-08-01T02:28:44;4.45;;;3.13;;
25069;SDS011;13064;48.162;11.536;2023-08-01T02:31:12;4.15;;;2.70;;
25069;SDS011;13064;48.162;11.536;2023-08-01T02:33:39;6.75;;;2.90;;
25069;SDS011;13064;48.162;11.536;2023-08-01T02:36:07;3.50;;;2.50;;
25069;SDS011;13064;48.162;11.536;2023-08-01T02:38:35;4.75;;;3.00;;
25069;SDS011;13064;48.162;11.536;2023-08-01T02:41:02;4.72;;;2.70;;
25069;SDS011;13064;48.162;11.536;2023-08-01T02:43:30;5.90;;;3.05;;
25069;SDS011;13064;48.162;11.536;2023-08-01T02:45:58;3.55;;;3.10;;
25069;SDS011;13064;48.162;11.536;2023-08-01T02:48:27;4.20;;;2.88;;
25069;SDS011;13064;48.162;11.536;2023-08-01T02:50:55;4.03;;;2.90;;
25069;SDS011;13064;48.162;11.536;2023-08-01T02:53:22;4.25;;;3.20;;
25069;SDS011;13064;48.162;11.536;2023-08-01T02:55:50;5.70;;;2.97;;
25069;SDS011;13064;48.162;11.536;2023-08-01T02:58:18;3.72;;;2.90;;
25069;SDS011;13064;48.162;11.536;2023-08-01T03:00:45;4.95;;;2.95;;
25069;SDS011;13064;48.162;11.536;2023-08-01T03:03:14;4.50;;;3.05;;
25069;SDS011;13064;48.162;11.536;2023-08-01T03:05:42;4.93;;;3.22;;
25069;SDS011;13064;48.162;11.536;2023-08-01T03:08:09;5.00;;;3.00;;
25069;SDS011;13064;48.162;11.536;2023-08-01T03:10:37;4.20;;;2.80;;
25069;SDS011;13064;48.162;11.536;2023-08-01T03:13:04;5.05;;;2.85;;
25069;SDS011;13064;48.162;11.536;2023-08-01T03:15:32;3.75;;;2.85;;
25069;SDS011;13064;48.162;11.536;2023-08-01T03:18:00;4.90;;;3.42;;
25069;SDS011;13064;48.162;11.536;2023-08-01T03:20:28;5.55;;;2.97;;
25069;SDS011;13064;48.162;11.536;2023-08-01T03:22:55;7.63;;;3.00;;
25069;SDS011;13064;48.162;11.536;2023-08-01T03:25:23;6.30;;;3.40;;
25069;SDS011;13064;48.162;11.536;2023-08-01T03:27:50;5.05;;;3.08;;
25069;SDS011;13064;48.162;11.536;2023-08-01T03:30:18;5.10;;;2.88;;
25069;SDS011;13064;48.162;11.536;2023-08-01T03:32:47;6.22;;;3.47;;
25069;SDS011;13064;48.162;11.536;2023-08-01T03:35:15;4.70;;;3.50;;
25069;SDS011;13064;48.162;11.536;2023-08-01T03:37:42;4.03;;;3.00;;
25069;SDS011;13064;48.162;11.536;2023-08-01T03:40:10;5.97;;;3.40;;
25069;SDS011;13064;48.162;11.536;2023-08-01T03:42:37;4.53;;;3.20;;
25069;SDS011;13064;48.162;11.536;2023-08-01T03:45:07;5.35;;;3.45;;
25069;SDS011;13064;48.162;11.536;2023-08-01T03:47:34;7.30;;;3.65;;
25069;SDS011;13064;48.162;11.536;2023-08-01T03:50:02;5.70;;;3.15;;
25069;SDS011;13064;48.162;11.536;2023-08-01T03:52:30;5.82;;;3.60;;
25069;SDS011;13064;48.162;11.536;2023-08-01T03:54:57;6.32;;;3.85;;
25069;SDS011;13064;48.162;11.536;2023-08-01T03:57:25;5.30;;;3.70;;
25069;SDS011;13064;48.162;11.536;2023-08-01T03:59:53;8.93;;;3.95;;
25069;SDS011;13064;48.162;11.536;2023-08-01T04:02:20;5.60;;;3.70;;
25069;SDS011;13064;48.162;11.536;2023-08-01T04:04:49;7.30;;;4.20;;
25069;SDS011;13064;48.162;11.536;2023-08-01T04:07:17;6.72;;;4.45;;
25069;SDS011;13064;48.162;11.536;2023-08-01T04:09:45;4.50;;;3.70;;
25069;SDS011;13064;48.162;11.536;2023-08-01T04:12:12;5.43;;;4.18;;
25069;SDS011;13064;48.162;11.536;2023-08-01T04:14:40;6.60;;;4.05;;
25069;SDS011;13064;48.162;11.536;2023-08-01T04:17:08;6.97;;;3.92;;
25069;SDS011;13064;48.162;11.536;2023-08-01T04:19:36;8.65;;;4.00;;
25069;SDS011;13064;48.162;11.536;2023-08-01T04:22:04;6.13;;;4.15;;
25069;SDS011;13064;48.162;11.536;2023-08-01T04:24:31;8.23;;;4.50;;
25069;SDS011;13064;48.162;11.536;2023-08-01T04:26:59;6.15;;;4.03;;
25069;SDS011;13064;48.162;11.536;2023-08-01T04:29:26;6.60;;;4.25;;
25069;SDS011;13064;48.162;11.536;2023-08-01T04:31:54;8.43;;;4.65;;
25069;SDS011;13064;48.162;11.536;2023-08-01T04:34:22;7.40;;;4.47;;
25069;SDS011;13064;48.162;11.536;2023-08-01T04:36:49;7.50;;;4.82;;
25069;SDS011;13064;48.162;11.536;2023-08-01T04:39:17;8.13;;;4.40;;
25069;SDS011;13064;48.162;11.536;2023-08-01T04:41:45;7.53;;;4.70;;
25069;SDS011;13064;48.162;11.536;2023-08-01T04:44:13;7.38;;;4.30;;
25069;SDS011;13064;48.162;11.536;2023-08-01T04:46:40;7.82;;;4.10;;
25069;SDS011;13064;48.162;11.536;2023-08-01T04:49:09;6.88;;;4.18;;
25069;SDS011;13064;48.162;11.536;2023-08-01T04:51:36;6.75;;;4.35;;
25069;SDS011;13064;48.162;11.536;2023-08-01T04:54:04;6.55;;;4.28;;
25069;SDS011;13064;48.162;11.536;2023-08-01T04:56:31;6.28;;;4.93;;
25069;SDS011;13064;48.162;11.536;2023-08-01T04:58:59;8.27;;;4.20;;
25069;SDS011;13064;48.162;11.536;2023-08-01T05:01:28;9.32;;;4.68;;
25069;SDS011;13064;48.162;11.536;2023-08-01T05:03:56;8.18;;;5.10;;
25069;SDS011;13064;48.162;11.536;2023-08-01T05:06:24;7.75;;;4.72;;
25069;SDS011;13064;48.162;11.536;2023-08-01T05:08:52;6.57;;;4.38;;
25069;SDS011;13064;48.162;11.536;2023-08-01T05:11:19;7.43;;;4.60;;
25069;SDS011;13064;48.162;11.536;2023-08-01T05:13:48;9.05;;;5.07;;
25069;SDS011;13064;48.162;11.536;2023-08-01T05:16:15;8.85;;;5.20;;
25069;SDS011;13064;48.162;11.536;2023-08-01T05:18:43;8.02;;;5.32;;
25069;SDS011;13064;48.162;11.536;2023-08-01T05:21:11;7.47;;;5.22;;
25069;SDS011;13064;48.162;11.536;2023-08-01T05:23:38;7.43;;;5.28;;
25069;SDS011;13064;48.162;11.536;2023-08-01T05:26:06;8.73;;;5.13;;
25069;SDS011;13064;48.162;11.536;2023-08-01T05:28:33;8.07;;;5.25;;
25069;SDS011;13064;48.162;11.536;2023-08-01T05:31:01;9.00;;;5.32;;
25069;SDS011;13064;48.162;11.536;2023-08-01T05:33:29;25.17;;;6.10;;
25069;SDS011;13064;48.162;11.536;2023-08-01T05:35:56;7.60;;;5.18;;
25069;SDS011;13064;48.162;11.536;2023-08-01T05:38:24;8.45;;;4.95;;
25069;SDS011;13064;48.162;11.536;2023-08-01T05:40:52;7.72;;;5.25;;
25069;SDS011;13064;48.162;11.536;2023-08-01T05:43:19;5.63;;;4.70;;
25069;SDS011;13064;48.162;11.536;2023-08-01T05:45:47;9.48;;;5.25;;
25069;SDS011;13064;48.162;11.536;2023-08-01T05:48:18;5.23;;;4.43;;
25069;SDS011;13064;48.162;11.536;2023-08-01T05:50:45;8.00;;;5.03;;
25069;SDS011;13064;48.162;11.536;2023-08-01T05:53:13;8.25;;;5.07;;
25069;SDS011;13064;48.162;11.536;2023-08-01T05:55:41;7.03;;;5.10;;
25069;SDS011;13064;48.162;11.536;2023-08-01T05:58:08;6.20;;;4.70;;
25069;SDS011;13064;48.162;11.536;2023-08-01T06:00:36;6.57;;;4.50;;
25069;SDS011;13064;48.162;11.536;2023-08-01T06:03:04;6.85;;;4.50;;
25069;SDS011;13064;48.162;11.536;2023-08-01T06:05:31;10.10;;;5.07;;
25069;SDS011;13064;48.162;11.536;2023-08-01T06:07:59;6.03;;;4.38;;
25069;SDS011;13064;48.162;11.536;2023-08-01T06:10:27;10.43;;;4.60;;
25069;SDS011;13064;48.162;11.536;2023-08-01T06:12:54;6.32;;;4.75;;
25069;SDS011;13064;48.162;11.536;2023-08-01T06:15:22;5.57;;;4.03;;
25069;SDS011;13064;48.162;11.536;2023-08-01T06:17:50;7.05;;;4.40;;
25069;SDS011;13064;48.162;11.536;2023-08-01T06:20:17;7.40;;;4.30;;
25069;SDS011;13064;48.162;11.536;2023-08-01T06:22:45;5.45;;;4.00;;
25069;SDS011;13064;48.162;11.536;2023-08-01T06:25:13;8.65;;;4.38;;
25069;SDS011;13064;48.162;11.536;2023-08-01T06:27:40;8.35;;;4.60;;
25069;SDS011;13064;48.162;11.536;2023-08-01T06:30:08;6.85;;;4.50;;
25069;SDS011;13064;48.162;11.536;2023-08-01T06:32:36;6.35;;;4.35;;
25069;SDS011;13064;48.162;11.536;2023-08-01T06:35:04;8.18;;;4.28;;
25069;SDS011;13064;48.162;11.536;2023-08-01T06:37:31;5.28;;;3.95;;
25069;SDS011;13064;48.162;11.536;2023-08-01T06:39:59;6.13;;;4.35;;
25069;SDS011;13064;48.162;11.536;2023-08-01T06:42:27;7.72;;;4.85;;
25069;SDS011;13064;48.162;11.536;2023-08-01T06:44:54;8.18;;;4.50;;
25069;SDS011;13064;48.162;11.536;2023-08-01T06:47:22;5.60;;;4.03;;
25069;SDS011;13064;48.162;11.536;2023-08-01T06:49:50;7.70;;;4.43;;
25069;SDS011;13064;48.162;11.536;2023-08-01T06:52:17;4.93;;;3.58;;
25069;SDS011;13064;48.162;11.536;2023-08-01T06:54:45;6.68;;;3.95;;
25069;SDS011;13064;48.162;11.536;2023-08-01T06:57:12;5.53;;;3.80;;
25069;SDS011;13064;48.162;11.536;2023-08-01T06:59:40;5.68;;;3.92;;
25069;SDS011;13064;48.162;11.536;2023-08-01T07:02:08;4.40;;;3.33;;
25069;SDS011;13064;48.162;11.536;2023-08-01T07:04:35;5.45;;;3.60;;
25069;SDS011;13064;48.162;11.536;2023-08-01T07:07:04;5.78;;;3.42;;
25069;SDS011;13064;48.162;11.536;2023-08-01T07:09:33;6.38;;;3.80;;
25069;SDS011;13064;48.162;11.536;2023-08-01T07:12:01;4.80;;;4.10;;
25069;SDS011;13064;48.162;11.536;2023-08-01T07:14:28;4.65;;;3.50;;
25069;SDS011;13064;48.162;11.536;2023-08-01T07:16:56;5.80;;;3.55;;
25069;SDS011;13064;48.162;11.536;2023-08-01T07:19:23;5.72;;;4.05;;
25069;SDS011;13064;48.162;11.536;2023-08-01T07:21:51;5.35;;;3.50;;
25069;SDS011;13064;48.162;11.536;2023-08-01T07:24:19;4.45;;;3.50;;
25069;SDS011;13064;48.162;11.536;2023-08-01T07:26:46;4.95;;;3.42;;
25069;SDS011;13064;48.162;11.536;2023-08-01T07:29:14;7.22;;;3.60;;
25069;SDS011;13064;48.162;11.536;2023-08-01T07:31:42;4.05;;;3.20;;
25069;SDS011;13064;48.162;11.536;2023-08-01T07:34:13;5.05;;;3.40;;
25069;SDS011;13064;48.162;11.536;2023-08-01T07:36:41;6.32;;;3.25;;
25069;SDS011;13064;48.162;11.536;2023-08-01T07:39:08;4.18;;;3.25;;
25069;SDS011;13064;48.162;11.536;2023-08-01T07:41:36;4.95;;;3.70;;
25069;SDS011;13064;48.162;11.536;2023-08-01T07:44:04;6.55;;;3.40;;
25069;SDS011;13064;48.162;11.536;2023-08-01T07:46:32;6.25;;;3.38;;
25069;SDS011;13064;48.162;11.536;2023-08-01T07:49:00;8.25;;;3.92;;
25069;SDS011;13064;48.162;11.536;2023-08-01T07:51:27;4.38;;;3.60;;
25069;SDS011;13064;48.162;11.536;2023-08-01T07:53:56;4.38;;;3.10;;
25069;SDS011;13064;48.162;11.536;2023-08-01T07:56:24;5.88;;;3.72;;
25069;SDS011;13064;48.162;11.536;2023-08-01T07:58:51;8.23;;;3.50;;
25069;SDS011;13064;48.162;11.536;2023-08-01T08:01:19;5.80;;;3.47;;
25069;SDS011;13064;48.162;11.536;2023-08-01T08:03:47;4.75;;;3.47;;
25069;SDS011;13064;48.162;11.536;2023-08-01T08:06:15;5.85;;;3.58;;
25069;SDS011;13064;48.162;11.536;2023-08-01T08:08:42;4.25;;;3.53;;
25069;SDS011;13064;48.162;11.536;2023-08-01T08:11:10;4.25;;;3.20;;
25069;SDS011;13064;48.162;11.536;2023-08-01T08:13:37;4.70;;;3.38;;
25069;SDS011;13064;48.162;11.536;2023-08-01T08:16:05;3.88;;;3.25;;
25069;SDS011;13064;48.162;11.536;2023-08-01T08:18:33;4.20;;;3.70;;
25069;SDS011;13064;48.162;11.536;2023-08-01T08:21:01;8.90;;;3.67;;
25069;SDS011;13064;48.162;11.536;2023-08-01T08:23:28;5.72;;;3.25;;
25069;SDS011;13064;48.162;11.536;2023-08-01T08:25:56;6.10;;;3.60;;
25069;SDS011;13064;48.162;11.536;2023-08-01T08:28:31;4.07;;;3.40;;
25069;SDS011;13064;48.162;11.536;2023-08-01T08:31:00;5.07;;;3.50;;
25069;SDS011;13064;48.162;11.536;2023-08-01T08:33:29;3.72;;;3.15;;
25069;SDS011;13064;48.162;11.536;2023-08-01T08:35:56;6.90;;;3.78;;
25069;SDS011;13064;48.162;11.536;2023-08-01T08:38:24;4.15;;;3.50;;
25069;SDS011;13064;48.162;11.536;2023-08-01T08:40:55;4.32;;;3.58;;
25069;SDS011;13064;48.162;11.536;2023-08-01T08:43:23;4.90;;;3.58;;
25069;SDS011;13064;48.162;11.536;2023-08-01T08:45:53;4.07;;;3.20;;
25069;SDS011;13064;48.162;11.536;2023-08-01T08:48:22;4.95;;;3.30;;
25069;SDS011;13064;48.162;11.536;2023-08-01T08:50:50;6.90;;;3.13;;
25069;SDS011;13064;48.162;11.536;2023-08-01T08:53:18;4.65;;;3.28;;
25069;SDS011;13064;48.162;11.536;2023-08-01T08:55:48;4.93;;;3.67;;
25069;SDS011;13064;48.162;11.536;2023-08-01T08:58:16;5.25;;;3.33;;
25069;SDS011;13064;48.162;11.536;2023-08-01T09:00:43;6.50;;;3.58;;
25069;SDS011;13064;48.162;11.536;2023-08-01T09:03:11;3.70;;;3.25;;
25069;SDS011;13064;48.162;11.536;2023-08-01T09:05:59;5.20;;;3.58;;
25069;SDS011;13064;48.162;11.536;2023-08-01T09:08:28;5.57;;;3.35;;
25069;SDS011;13064;48.162;11.536;2023-08-01T09:10:57;7.35;;;4.03;;
25069;SDS011;13064;48.162;11.536;2023-08-01T09:13:24;4.95;;;3.30;;
25069;SDS011;13064;48.162;11.536;2023-08-01T09:15:52;6.10;;;3.63;;
25069;SDS011;13064;48.162;11.536;2023-08-01T09:18:20;8.02;;;3.97;;
25069;SDS011;13064;48.162;11.536;2023-08-01T09:20:48;6.00;;;3.58;;
25069;SDS011;13064;48.162;11.536;2023-08-01T09:23:16;7.28;;;3.17;;
25069;SDS011;13064;48.162;11.536;2023-08-01T09:25:44;5.32;;;3.75;;
25069;SDS011;13064;48.162;11.536;2023-08-01T09:28:16;5.38;;;3.55;;
25069;SDS011;13064;48.162;11.536;2023-08-01T09:33:12;5.97;;;3.30;;
25069;SDS011;13064;48.162;11.536;2023-08-01T09:35:39;6.43;;;4.35;;
25069;SDS011;13064;48.162;11.536;2023-08-01T09:38:07;4.35;;;3.58;;
25069;SDS011;13064;48.162;11.536;2023-08-01T09:40:38;5.20;;;3.60;;
25069;SDS011;13064;48.162;11.536;2023-08-01T09:43:06;5.03;;;3.83;;
25069;SDS011;13064;48.162;11.536;2023-08-01T09:45:33;5.13;;;3.53;;
25069;SDS011;13064;48.162;11.536;2023-08-01T09:48:01;4.25;;;3.60;;
25069;SDS011;13064;48.162;11.536;2023-08-01T09:50:29;5.30;;;3.47;;
25069;SDS011;13064;48.162;11.536;2023-08-01T09:53:06;5.13;;;3.70;;
25069;SDS011;13064;48.162;11.536;2023-08-01T09:55:34;4.38;;;3.75;;
25069;SDS011;13064;48.162;11.536;2023-08-01T09:58:02;5.45;;;3.50;;
25069;SDS011;13064;48.162;11.536;2023-08-01T10:00:34;4.65;;;3.60;;
25069;SDS011;13064;48.162;11.536;2023-08-01T10:03:02;4.93;;;3.38;;
25069;SDS011;13064;48.162;11.536;2023-08-01T10:05:31;6.68;;;3.80;;
25069;SDS011;13064;48.162;11.536;2023-08-01T10:07:59;4.50;;;3.40;;
25069;SDS011;13064;48.162;11.536;2023-08-01T10:10:27;7.85;;;3.70;;
25069;SDS011;13064;48.162;11.536;2023-08-01T10:12:56;6.70;;;3.63;;
25069;SDS011;13064;48.162;11.536;2023-08-01T10:15:24;4.43;;;3.53;;
25069;SDS011;13064;48.162;11.536;2023-08-01T10:17:52;7.22;;;3.50;;
25069;SDS011;13064;48.162;11.536;2023-08-01T10:20:20;7.15;;;3.80;;
25069;SDS011;13064;48.162;11.536;2023-08-01T10:22:49;6.90;;;3.40;;
25069;SDS011;13064;48.162;11.536;2023-08-01T10:25:17;7.78;;;3.15;;
25069;SDS011;13064;48.162;11.536;2023-08-01T10:27:56;4.38;;;3.28;;
25069;SDS011;13064;48.162;11.536;2023-08-01T10:30:27;6.30;;;3.30;;
25069;SDS011;13064;48.162;11.536;2023-08-01T10:32:56;4.80;;;3.60;;
25069;SDS011;13064;48.162;11.536;2023-08-01T10:35:37;5.65;;;3.65;;
25069;SDS011;13064;48.162;11.536;2023-08-01T10:38:11;5.53;;;3.60;;
25069;SDS011;13064;48.162;11.536;2023-08-01T10:40:39;6.63;;;3.78;;
25069;SDS011;13064;48.162;11.536;2023-08-01T10:43:23;4.97;;;3.85;;
25069;SDS011;13064;48.162;11.536;2023-08-01T10:46:01;7.72;;;3.97;;
25069;SDS011;13064;48.162;11.536;2023-08-01T10:48:29;6.32;;;3.80;;
25069;SDS011;13064;48.162;11.536;2023-08-01T10:50:57;5.13;;;3.80;;
25069;SDS011;13064;48.162;11.536;2023-08-01T10:53:24;4.22;;;3.42;;
25069;SDS011;13064;48.162;11.536;2023-08-01T10:55:52;5.53;;;3.55;;
25069;SDS011;13064;48.162;11.536;2023-08-01T10:58:20;4.43;;;3.22;;
25069;SDS011;13064;48.162;11.536;2023-08-01T11:00:57;4.97;;;3.50;;
25069;SDS011;13064;48.162;11.536;2023-08-01T11:03:38;5.55;;;3.78;;
25069;SDS011;13064;48.162;11.536;2023-08-01T11:06:06;4.20;;;2.90;;
25069;SDS011;13064;48.162;11.536;2023-08-01T11:08:34;6.15;;;3.50;;
25069;SDS011;13064;48.162;11.536;2023-08-01T11:11:03;5.40;;;3.28;;
25069;SDS011;13064;48.162;11.536;2023-08-01T11:13:30;3.80;;;3.08;;
25069;SDS011;13064;48.162;11.536;2023-08-01T11:16:04;5.50;;;2.78;;
25069;SDS011;13064;48.162;11.536;2023-08-01T11:18:42;6.38;;;2.53;;
25069;SDS011;13064;48.162;11.536;2023-08-01T11:21:10;5.20;;;2.85;;
25069;SDS011;13064;48.162;11.536;2023-08-01T11:23:37;5.05;;;3.10;;
25069;SDS011;13064;48.162;11.536;2023-08-01T11:26:08;4.03;;;2.90;;
25069;SDS011;13064;48.162;11.536;2023-08-01T11:28:36;5.72;;;2.55;;
25069;SDS011;13064;48.162;11.536;2023-08-01T11:31:10;2.92;;;2.50;;
25069;SDS011;13064;48.162;11.536;2023-08-01T11:33:39;2.75;;;2.47;;
25069;SDS011;13064;48.162;11.536;2023-08-01T11:36:07;4.55;;;2.53;;
25069;SDS011;13064;48.162;11.536;2023-08-01T11:38:35;2.60;;;2.30;;
25069;SDS011;13064;48.162;11.536;2023-08-01T11:41:03;3.58;;;2.65;;
25069;SDS011;13064;48.162;11.536;2023-08-01T11:43:38;3.80;;;2.60;;
25069;SDS011;13064;48.162;11.536;2023-08-01T11:46:06;3.22;;;2.60;;
25069;SDS011;13064;48.162;11.536;2023-08-01T11:48:34;3.33;;;2.50;;
25069;SDS011;13064;48.162;11.536;2023-08-01T11:51:02;4.45;;;3.05;;
25069;SDS011;13064;48.162;11.536;2023-08-01T11:53:30;3.40;;;3.10;;
25069;SDS011;13064;48.162;11.536;2023-08-01T11:56:07;4.18;;;3.20;;
25069;SDS011;13064;48.162;11.536;2023-08-01T11:58:35;4.93;;;3.38;;
25069;SDS011;13064;48.162;11.536;2023-08-01T12:01:09;4.43;;;2.80;;
25069;SDS011;13064;48.162;11.536;2023-08-01T12:03:47;3.53;;;2.88;;
25069;SDS011;13064;48.162;11.536;2023-08-01T12:06:15;4.32;;;2.88;;
25069;SDS011;13064;48.162;11.536;2023-08-01T12:08:43;5.70;;;2.95;;
25069;SDS011;13064;48.162;11.536;2023-08-01T12:11:25;3.80;;;3.10;;
25069;SDS011;13064;48.162;11.536;2023-08-01T12:14:08;4.15;;;3.08;;
25069;SDS011;13064;48.162;11.536;2023-08-01T12:16:40;4.63;;;3.00;;
25069;SDS011;13064;48.162;11.536;2023-08-01T12:19:08;5.00;;;2.78;;
25069;SDS011;13064;48.162;11.536;2023-08-01T12:21:36;4.07;;;2.78;;
25069;SDS011;13064;48.162;11.536;2023-08-01T12:24:04;5.25;;;3.17;;
25069;SDS011;13064;48.162;11.536;2023-08-01T12:26:31;3.78;;;2.70;;
25069;SDS011;13064;48.162;11.536;2023-08-01T12:28:59;4.70;;;3.00;;
25069;SDS011;13064;48.162;11.536;2023-08-01T12:31:27;3.90;;;2.75;;
25069;SDS011;13064;48.162;11.536;2023-08-01T12:33:54;4.22;;;2.83;;
25069;SDS011;13064;48.162;11.536;2023-08-01T12:36:22;4.82;;;3.30;;
25069;SDS011;13064;48.162;11.536;2023-08-01T12:38:50;3.97;;;2.80;;
25069;SDS011;13064;48.162;11.536;2023-08-01T12:41:17;3.70;;;2.97;;
25069;SDS011;13064;48.162;11.536;2023-08-01T12:43:45;3.25;;;2.60;;
25069;SDS011;13064;48.162;11.536;2023-08-01T12:46:12;3.05;;;2.70;;
25069;SDS011;13064;48.162;11.536;2023-08-01T12:48:40;3.22;;;2.58;;
25069;SDS011;13064;48.162;11.536;2023-08-01T12:51:08;3.83;;;2.50;;
25069;SDS011;13064;48.162;11.536;2023-08-01T12:53:36;2.95;;;2.70;;
25069;SDS011;13064;48.162;11.536;2023-08-01T12:56:09;4.20;;;2.63;;
25069;SDS011;13064;48.162;11.536;2023-08-01T12:58:36;3.85;;;2.92;;
25069;SDS011;13064;48.162;11.536;2023-08-01T13:01:04;7.07;;;2.83;;
25069;SDS011;13064;48.162;11.536;2023-08-01T13:03:31;2.85;;;2.55;;
25069;SDS011;13064;48.162;11.536;2023-08-01T13:05:59;4.35;;;2.60;;
25069;SDS011;13064;48.162;11.536;2023-08-01T13:08:27;4.05;;;2.45;;
25069;SDS011;13064;48.162;11.536;2023-08-01T13:10:55;3.38;;;2.47;;
25069;SDS011;13064;48.162;11.536;2023-08-01T13:13:26;3.38;;;2.42;;
25069;SDS011;13064;48.162;11.536;2023-08-01T13:15:55;4.03;;;2.40;;
25069;SDS011;13064;48.162;11.536;2023-08-01T13:18:23;2.80;;;2.30;;
25069;SDS011;13064;48.162;11.536;2023-08-01T13:20:51;3.10;;;2.80;;
25069;SDS011;13064;48.162;11.536;2023-08-01T13:23:19;3.03;;;2.60;;
25069;SDS011;13064;48.162;11.536;2023-08-01T13:25:48;4.10;;;2.78;;
25069;SDS011;13064;48.162;11.536;2023-08-01T13:28:16;4.05;;;2.55;;
25069;SDS011;13064;48.162;11.536;2023-08-01T13:30:43;5.43;;;3.00;;
25069;SDS011;13064;48.162;11.536;2023-08-01T13:33:11;3.50;;;2.42;;
25069;SDS011;13064;48.162;11.536;2023-08-01T13:35:38;3.17;;;2.40;;
25069;SDS011;13064;48.162;11.536;2023-08-01T13:38:06;3.80;;;2.65;;
25069;SDS011;13064;48.162;11.536;2023-08-01T13:40:34;3.40;;;2.65;;
25069;SDS011;13064;48.162;11.536;2023-08-01T13:43:02;3.58;;;2.53;;
25069;SDS011;13064;48.162;11.536;2023-08-01T13:45:30;4.00;;;2.72;;
25069;SDS011;13064;48.162;11.536;2023-08-01T13:47:58;4.18;;;2.95;;
25069;SDS011;13064;48.162;11.536;2023-08-01T13:50:28;2.50;;;2.30;;
25069;SDS011;13064;48.162;11.536;2023-08-01T13:52:57;5.60;;;2.72;;
25069;SDS011;13064;48.162;11.536;2023-08-01T13:55:25;3.28;;;2.42;;
25069;SDS011;13064;48.162;11.536;2023-08-01T13:57:52;3.58;;;2.70;;
25069;SDS011;13064;48.162;11.536;2023-08-01T14:00:20;3.53;;;2.30;;
25069;SDS011;13064;48.162;11.536;2023-08-01T14:02:49;2.78;;;2.50;;
25069;SDS011;13064;48.162;11.536;2023-08-01T14:05:17;4.50;;;2.55;;
25069;SDS011;13064;48.162;11.536;2023-08-01T14:07:45;3.67;;;2.80;;
25069;SDS011;13064;48.162;11.536;2023-08-01T14:10:13;2.85;;;2.58;;
25069;SDS011;13064;48.162;11.536;2023-08-01T14:12:41;3.42;;;2.60;;
25069;SDS011;13064;48.162;11.536;2023-08-01T14:15:09;2.90;;;2.42;;
25069;SDS011;13064;48.162;11.536;2023-08-01T14:17:38;4.53;;;3.15;;
25069;SDS011;13064;48.162;11.536;2023-08-01T14:20:06;3.15;;;2.80;;
25069;SDS011;13064;48.162;11.536;2023-08-01T14:22:34;6.82;;;3.05;;
25069;SDS011;13064;48.162;11.536;2023-08-01T14:25:02;5.88;;;2.58;;
25069;SDS011;13064;48.162;11.536;2023-08-01T14:27:30;3.42;;;2.72;;
25069;SDS011;13064;48.162;11.536;2023-08-01T14:29:57;4.10;;;2.80;;
25069;SDS011;13064;48.162;11.536;2023-08-01T14:32:25;3.67;;;2.50;;
25069;SDS011;13064;48.162;11.536;2023-08-01T14:34:52;2.85;;;1.98;;
25069;SDS011;13064;48.162;11.536;2023-08-01T14:37:20;2.45;;;2.13;;
25069;SDS011;13064;48.162;11.536;2023-08-01T14:39:50;1.75;;;1.60;;
25069;SDS011;13064;48.162;11.536;2023-08-01T14:42:18;2.17;;;1.55;;